Evelyn Maersk — OXHV2 — position and weather

sailwx.info

Track history (hours):
 
Tides and Currents Weather Stations Pressure Air Temp Water Temp Dewpoint Dewpoint Depression Visibility Wind Speed Wind Dir Waves Ship Positions

Evelyn Maersk

Last reported at 2015-Mar-06 12:05 UTC. Time now 2015-Mar-06 20:08 UTC.
Position N 02°23' E 101°46'.

Length 398 m; draft 13.4 m.

Type: Cargo ship. MMSI: 220496000.

Date/timePositionNaut miles runAvg speedWind from/ knotsBaromVisibWave heightAir tempDewpointWater temp
2015-Mar-06 12:05N 02°23' E 101°46'4819.1
2015-Mar-06 09:33N 01°53' E 102°23'2221.3
2015-Mar-06 08:32N 01°43' E 102°43'65 2.1
2015-Mar-05 02:05N 01°11' E 103°40'510.2
2015-Mar-05 01:33N 01°09' E 103°45'  
2015-Mar-01 21:29N 22°06' E 114°34'1314.4
2015-Mar-01 20:33N 22°19' E 114°31'1913.0
2015-Mar-01 19:05N 22°34' E 114°18'14 1.3
2015-Mar-01 08:16N 22°24' E 114°28'810.5
2015-Mar-01 07:33N 22°16' E 114°29'1111.0
2015-Mar-01 06:33N 22°08' E 114°22'1211.5
2015-Mar-01 05:33N 22°12' E 114°10'8 8.6
2015-Mar-01 04:33N 22°20' E 114°07'0 0.2
2015-Mar-01 03:33N 22°20' E 114°07'0 0.0
2015-Mar-01 02:33N 22°20' E 114°07'0 0.0
2015-Mar-01 01:27N 22°20' E 114°07'0 0.0
2015-Mar-01 00:24N 22°20' E 114°07'0 0.0
2015-Feb-28 23:33N 22°20' E 114°07'0 0.0
2015-Feb-28 22:33N 22°20' E 114°07'0 0.0
2015-Feb-28 21:30N 22°20' E 114°07'0 0.0
2015-Feb-28 20:33N 22°20' E 114°07'0 0.0
2015-Feb-28 19:33N 22°20' E 114°07'0 0.0
2015-Feb-28 18:33N 22°20' E 114°07'0 0.1
2015-Feb-28 17:33N 22°20' E 114°07'0 0.1
2015-Feb-28 16:30N 22°20' E 114°07'0 0.0
2015-Feb-28 15:33N 22°20' E 114°07'0 0.0
2015-Feb-28 14:30N 22°20' E 114°07'0 0.0
2015-Feb-28 13:30N 22°20' E 114°07'0 0.0
2015-Feb-28 12:33N 22°20' E 114°07'0 0.2
2015-Feb-28 11:33N 22°20' E 114°07'8 7.4
2015-Feb-28 10:29N 22°13' E 114°10'8 7.7
2015-Feb-28 09:27N 22°09' E 114°17'1415.9
2015-Feb-28 08:34N 22°11' E 114°32'13220.4
2015-Feb-28 02:07N 22°47' E 116°49'1722.5
2015-Feb-28 01:22N 22°56' E 117°04'6222.1
2015-Feb-27 22:33N 23°35' E 117°58'2322.7
2015-Feb-27 21:33N 23°48' E 118°18'2622.4
2015-Feb-27 20:22N 24°05' E 118°40'2022.4
2015-Feb-27 19:29N 24°17' E 118°57'2021.9
2015-Feb-27 18:33N 24°29' E 119°15'35221.6
2015-Feb-27 02:14N 29°32' E 122°38'1116.7
2015-Feb-27 01:33N 29°40' E 122°29'1414.1
2015-Feb-27 00:33N 29°48' E 122°15'1111.4
2015-Feb-26 23:33N 29°54' E 122°04'2 1.7
2015-Feb-26 22:29N 29°54' E 122°02'0 0.0
2015-Feb-26 21:14N 29°54' E 122°02'0 0.0
2015-Feb-26 18:20N 29°54' E 122°02'0 0.0
2015-Feb-26 17:14N 29°54' E 122°02'0 0.0
2015-Feb-26 16:29N 29°54' E 122°02'0 0.0
2015-Feb-26 15:32N 29°54' E 122°02'0 0.0
2015-Feb-26 14:26N 29°54' E 122°02'0 0.0
2015-Feb-26 13:29N 29°54' E 122°02'0 0.0
2015-Feb-26 12:32N 29°54' E 122°02'0 0.0
2015-Feb-26 11:11N 29°54' E 122°02'0 0.0
2015-Feb-26 10:20N 29°54' E 122°02'0 0.0
2015-Feb-26 09:26N 29°54' E 122°02'0 0.0
2015-Feb-26 08:26N 29°54' E 122°02'0 0.0
2015-Feb-26 07:26N 29°54' E 122°02'0 0.0
2015-Feb-26 06:29N 29°54' E 122°02'0 0.0
2015-Feb-26 05:32N 29°54' E 122°02'2 2.4
2015-Feb-26 04:33N 29°55' E 122°04'1110.6
2015-Feb-26 03:34N 29°49' E 122°14'8 8.4
2015-Feb-26 02:34N 29°44' E 122°22'1010.1
2015-Feb-26 01:33N 29°41' E 122°34'9 9.2
2015-Feb-26 00:33N 29°40' E 122°44'2 2.3
2015-Feb-25 23:32N 29°41' E 122°47'3 2.2
2015-Feb-25 22:22N 29°43' E 122°48'1 1.3
2015-Feb-25 21:30N 29°44' E 122°47'2 0.3
2015-Feb-25 16:23N 29°42' E 122°46'1 0.8
2015-Feb-25 15:10N 29°43' E 122°47'1 1.0
2015-Feb-25 14:16N 29°43' E 122°48'1 1.4
2015-Feb-25 13:31N 29°42' E 122°49'2 2.0
2015-Feb-25 12:29N 29°43' E 122°51'5 1.6
2015-Feb-25 09:17N 29°48' E 122°53'7 9.1
2015-Feb-25 08:33N 29°55' E 122°55'2510.2
2015-Feb-25 06:06N 30°20' E 122°57'610.5
2015-Feb-25 05:33N 30°23' E 122°52'2410.4
2015-Feb-25 03:17N 30°31' E 122°26'911.7
2015-Feb-25 02:33N 30°33' E 122°16'1212.2
2015-Feb-25 01:33N 30°37' E 122°03'0 0.5
2015-Feb-25 00:33N 30°38' E 122°03'0 0.0
2015-Feb-24 23:32N 30°38' E 122°03'0 0.0
2015-Feb-24 22:32N 30°38' E 122°03'0 0.0
2015-Feb-24 21:32N 30°38' E 122°03'0 0.0
2015-Feb-24 20:32N 30°38' E 122°03'2 1.7
2015-Feb-24 19:33N 30°37' E 122°04'1010.0
2015-Feb-24 18:33N 30°33' E 122°15'1615.5
2015-Feb-24 17:33N 30°31' E 122°33'  
Track history (hours):
 
Tides and Currents Weather Stations Pressure Air Temp Water Temp Dewpoint Dewpoint Depression Visibility Wind Speed Wind Dir Waves Ship Positions

Evelyn Maersk

Last reported at 2015-Mar-06 12:05 UTC. Time now 2015-Mar-06 20:08 UTC.
Position N 02°23' E 101°46'.

Length 398 m; draft 13.4 m.

Type: Cargo ship. MMSI: 220496000.

Date/timePositionNaut miles runAvg speedWind from/ knotsBaromVisibWave heightAir tempDewpointWater temp
2015-Mar-06 12:05N 02°23' E 101°46'4819.1
2015-Mar-06 09:33N 01°53' E 102°23'2221.3
2015-Mar-06 08:32N 01°43' E 102°43'65 2.1
2015-Mar-05 02:05N 01°11' E 103°40'510.2
2015-Mar-05 01:33N 01°09' E 103°45'  
2015-Mar-01 21:29N 22°06' E 114°34'1314.4
2015-Mar-01 20:33N 22°19' E 114°31'1913.0
2015-Mar-01 19:05N 22°34' E 114°18'14 1.3
2015-Mar-01 08:16N 22°24' E 114°28'810.5
2015-Mar-01 07:33N 22°16' E 114°29'1111.0
2015-Mar-01 06:33N 22°08' E 114°22'1211.5
2015-Mar-01 05:33N 22°12' E 114°10'8 8.6
2015-Mar-01 04:33N 22°20' E 114°07'0 0.2
2015-Mar-01 03:33N 22°20' E 114°07'0 0.0
2015-Mar-01 02:33N 22°20' E 114°07'0 0.0
2015-Mar-01 01:27N 22°20' E 114°07'0 0.0
2015-Mar-01 00:24N 22°20' E 114°07'0 0.0
2015-Feb-28 23:33N 22°20' E 114°07'0 0.0
2015-Feb-28 22:33N 22°20' E 114°07'0 0.0
2015-Feb-28 21:30N 22°20' E 114°07'0 0.0
2015-Feb-28 20:33N 22°20' E 114°07'0 0.0
2015-Feb-28 19:33N 22°20' E 114°07'0 0.0
2015-Feb-28 18:33N 22°20' E 114°07'0 0.1
2015-Feb-28 17:33N 22°20' E 114°07'0 0.1
2015-Feb-28 16:30N 22°20' E 114°07'0 0.0
2015-Feb-28 15:33N 22°20' E 114°07'0 0.0
2015-Feb-28 14:30N 22°20' E 114°07'0 0.0
2015-Feb-28 13:30N 22°20' E 114°07'0 0.0
2015-Feb-28 12:33N 22°20' E 114°07'0 0.2
2015-Feb-28 11:33N 22°20' E 114°07'8 7.4
2015-Feb-28 10:29N 22°13' E 114°10'8 7.7
2015-Feb-28 09:27N 22°09' E 114°17'1415.9
2015-Feb-28 08:34N 22°11' E 114°32'13220.4
2015-Feb-28 02:07N 22°47' E 116°49'1722.5
2015-Feb-28 01:22N 22°56' E 117°04'6222.1
2015-Feb-27 22:33N 23°35' E 117°58'2322.7
2015-Feb-27 21:33N 23°48' E 118°18'2622.4
2015-Feb-27 20:22N 24°05' E 118°40'2022.4
2015-Feb-27 19:29N 24°17' E 118°57'2021.9
2015-Feb-27 18:33N 24°29' E 119°15'35221.6
2015-Feb-27 02:14N 29°32' E 122°38'1116.7
2015-Feb-27 01:33N 29°40' E 122°29'1414.1
2015-Feb-27 00:33N 29°48' E 122°15'1111.4
2015-Feb-26 23:33N 29°54' E 122°04'2 1.7
2015-Feb-26 22:29N 29°54' E 122°02'0 0.0
2015-Feb-26 21:14N 29°54' E 122°02'0 0.0
2015-Feb-26 18:20N 29°54' E 122°02'0 0.0
2015-Feb-26 17:14N 29°54' E 122°02'0 0.0
2015-Feb-26 16:29N 29°54' E 122°02'0 0.0
2015-Feb-26 15:32N 29°54' E 122°02'0 0.0
2015-Feb-26 14:26N 29°54' E 122°02'0 0.0
2015-Feb-26 13:29N 29°54' E 122°02'0 0.0
2015-Feb-26 12:32N 29°54' E 122°02'0 0.0
2015-Feb-26 11:11N 29°54' E 122°02'0 0.0
2015-Feb-26 10:20N 29°54' E 122°02'0 0.0
2015-Feb-26 09:26N 29°54' E 122°02'0 0.0
2015-Feb-26 08:26N 29°54' E 122°02'0 0.0
2015-Feb-26 07:26N 29°54' E 122°02'0 0.0
2015-Feb-26 06:29N 29°54' E 122°02'0 0.0
2015-Feb-26 05:32N 29°54' E 122°02'2 2.4
2015-Feb-26 04:33N 29°55' E 122°04'1110.6
2015-Feb-26 03:34N 29°49' E 122°14'8 8.4
2015-Feb-26 02:34N 29°44' E 122°22'1010.1
2015-Feb-26 01:33N 29°41' E 122°34'9 9.2
2015-Feb-26 00:33N 29°40' E 122°44'2 2.3
2015-Feb-25 23:32N 29°41' E 122°47'3 2.2
2015-Feb-25 22:22N 29°43' E 122°48'1 1.3
2015-Feb-25 21:30N 29°44' E 122°47'2 0.3
2015-Feb-25 16:23N 29°42' E 122°46'1 0.8
2015-Feb-25 15:10N 29°43' E 122°47'1 1.0
2015-Feb-25 14:16N 29°43' E 122°48'1 1.4
2015-Feb-25 13:31N 29°42' E 122°49'2 2.0
2015-Feb-25 12:29N 29°43' E 122°51'5 1.6
2015-Feb-25 09:17N 29°48' E 122°53'7 9.1
2015-Feb-25 08:33N 29°55' E 122°55'2510.2
2015-Feb-25 06:06N 30°20' E 122°57'610.5
2015-Feb-25 05:33N 30°23' E 122°52'2410.4
2015-Feb-25 03:17N 30°31' E 122°26'911.7
2015-Feb-25 02:33N 30°33' E 122°16'1212.2
2015-Feb-25 01:33N 30°37' E 122°03'0 0.5
2015-Feb-25 00:33N 30°38' E 122°03'0 0.0
2015-Feb-24 23:32N 30°38' E 122°03'0 0.0
2015-Feb-24 22:32N 30°38' E 122°03'0 0.0
2015-Feb-24 21:32N 30°38' E 122°03'0 0.0
2015-Feb-24 20:32N 30°38' E 122°03'2 1.7
2015-Feb-24 19:33N 30°37' E 122°04'1010.0
2015-Feb-24 18:33N 30°33' E 122°15'1615.5
2015-Feb-24 17:33N 30°31' E 122°33'  

Dump ship's entire track history